Time;durP1;ratioP1;P1;durP2;ratioP2;P2;SDS_P1;SDS_P2;PMS_P1;PMS_P2;Temp;Humidity;BMP_temperature;BMP_pressure;BME280_temperature;BME280_humidity;BME280_pressure;Samples;Min_cycle;Max_cycle;Signal;HPM_P1;HPM_P2
2022/01/20 00:03:19;;;;;;;12.63;6.90;;;;;;;;;;4980690;28;20023;-86
2022/01/20 00:08:31;;;;;;;9.82;6.65;;;;;;;;;;4978911;28;20098;-87
2022/01/20 00:27:55;;;;;;;14.05;7.28;;;;;;;;;;4939713;28;20044;-85
2022/01/20 00:38:21;;;;;;;15.15;8.18;;;;;;;;;;4979542;28;20023;-88
2022/01/20 00:40:47;;;;;;;12.43;7.93;;;;;;;;;;4979601;28;20027;-86
2022/01/20 00:43:13;;;;;;;13.32;8.00;;;;;;;;;;4979819;28;20023;-86
2022/01/20 00:49:29;;;;;;;9.80;5.78;;;;;;;;;;5176791;27;20042;-86
2022/01/20 00:51:55;;;;;;;9.05;5.78;;;;;;;;;;5176825;27;20022;-85
2022/01/20 00:54:21;;;;;;;9.65;5.97;;;;;;;;;;5176550;27;20038;-85
2022/01/20 00:56:48;;;;;;;10.18;6.55;;;;;;;;;;5176399;27;20015;-87
2022/01/20 00:59:14;;;;;;;8.57;5.90;;;;;;;;;;5176777;27;20003;-86
2022/01/20 01:01:40;;;;;;;11.55;6.03;;;;;;;;;;5158531;27;20058;-85
2022/01/20 01:04:06;;;;;;;10.25;5.70;;;;;;;;;;5176435;27;20027;-87
2022/01/20 01:09:17;;;;;;;9.93;6.43;;;;;;;;;;5176739;27;20025;-87
2022/01/20 01:11:45;;;;;;;9.00;5.40;;;;;;;;;;5176459;27;20019;-87
2022/01/20 01:14:12;;;;;;;9.90;5.47;;;;;;;;;;5176363;27;20058;-85
2022/01/20 01:20:09;;;;;;;10.30;6.05;;;;;;;;;;5176213;27;20010;-86
2022/01/20 01:24:35;;;;;;;7.80;5.55;;;;;;;;;;5176148;27;20043;-86
2022/01/20 01:27:02;;;;;;;9.45;6.00;;;;;;;;;;5175790;27;20027;-87
2022/01/20 01:30:20;;;;;;;7.80;4.88;;;;;;;;;;5176296;27;20014;-86
2022/01/20 01:32:17;;;;;;;9.52;6.13;;;;;;;;;;5165004;27;20049;-86
2022/01/20 01:34:51;;;;;;;10.00;5.78;;;;;;;;;;5158142;27;20031;-87
2022/01/20 01:39:59;;;;;;;11.07;7.13;;;;;;;;;;5176169;27;20027;-85
2022/01/20 01:42:32;;;;;;;9.93;6.55;;;;;;;;;;5175933;27;20059;-86
2022/01/20 01:45:12;;;;;;;11.32;6.78;;;;;;;;;;5174437;27;20050;-86
2022/01/20 01:47:38;;;;;;;10.45;6.82;;;;;;;;;;5160919;27;20052;-84
2022/01/20 01:50:04;;;;;;;16.80;7.93;;;;;;;;;;5152903;27;20010;-85
2022/01/20 01:52:30;;;;;;;13.05;8.32;;;;;;;;;;5154965;27;20026;-84
2022/01/20 01:54:57;;;;;;;12.45;8.25;;;;;;;;;;5154122;27;20012;-85
2022/01/20 01:57:27;;;;;;;17.95;7.90;;;;;;;;;;5140134;28;20012;-86
2022/01/20 01:59:53;;;;;;;16.10;9.45;;;;;;;;;;5143490;27;20016;-86
2022/01/20 02:02:19;;;;;;;18.20;8.70;;;;;;;;;;5156886;27;20030;-84
2022/01/20 02:04:46;;;;;;;13.90;8.82;;;;;;;;;;5135339;27;20023;-84
2022/01/20 02:07:48;;;;;;;17.45;9.52;;;;;;;;;;5142539;27;20450;-83
2022/01/20 02:20:54;;;;;;;39.58;11.15;;;;;;;;;;5123073;28;20100;-84
2022/01/20 02:23:21;;;;;;;31.05;12.00;;;;;;;;;;5121248;28;20051;-82
2022/01/20 02:25:48;;;;;;;45.40;11.45;;;;;;;;;;5121513;28;20020;-84
2022/01/20 02:28:14;;;;;;;32.72;10.77;;;;;;;;;;5121884;28;20012;-84
2022/01/20 02:30:43;;;;;;;35.58;12.00;;;;;;;;;;5120663;28;20024;-85
2022/01/20 02:33:11;;;;;;;32.45;10.75;;;;;;;;;;5101895;28;20494;-84
2022/01/20 02:35:38;;;;;;;21.25;10.80;;;;;;;;;;5126039;28;20033;-85
2022/01/20 02:38:16;;;;;;;58.70;12.73;;;;;;;;;;5103427;28;20034;-84
2022/01/20 02:45:54;;;;;;;83.43;12.98;;;;;;;;;;5121087;28;20066;-86
2022/01/20 02:48:20;;;;;;;29.60;12.93;;;;;;;;;;5120484;28;20467;-86
2022/01/20 02:50:47;;;;;;;27.05;13.75;;;;;;;;;;5102571;28;20492;-84
2022/01/20 02:53:12;;;;;;;42.53;12.73;;;;;;;;;;5121987;28;20016;-86
2022/01/20 02:55:39;;;;;;;72.07;13.45;;;;;;;;;;5124091;28;20043;-84
2022/01/20 02:58:06;;;;;;;79.90;12.88;;;;;;;;;;5103248;28;20135;-86
2022/01/20 03:00:33;;;;;;;75.72;13.20;;;;;;;;;;5119385;28;20023;-86
2022/01/20 03:03:00;;;;;;;219.98;15.77;;;;;;;;;;5100502;28;20047;-86
2022/01/20 03:05:26;;;;;;;76.35;12.75;;;;;;;;;;5119281;28;20112;-86
2022/01/20 03:07:53;;;;;;;41.40;12.82;;;;;;;;;;5120097;28;20061;-85
2022/01/20 03:10:19;;;;;;;64.78;14.02;;;;;;;;;;5102158;28;20390;-86
2022/01/20 03:12:45;;;;;;;61.00;13.15;;;;;;;;;;5117837;28;20047;-86
2022/01/20 03:15:11;;;;;;;185.77;16.30;;;;;;;;;;5098829;28;20455;-86
2022/01/20 03:17:37;;;;;;;92.93;15.07;;;;;;;;;;5116198;28;20035;-85
2022/01/20 03:20:03;;;;;;;102.85;15.35;;;;;;;;;;5132311;27;20031;-87
2022/01/20 03:22:29;;;;;;;175.50;16.67;;;;;;;;;;5143521;27;20091;-86
2022/01/20 03:24:57;;;;;;;157.30;15.05;;;;;;;;;;5121895;27;20405;-86
2022/01/20 03:27:23;;;;;;;39.28;13.43;;;;;;;;;;5139029;27;20094;-87
2022/01/20 03:29:50;;;;;;;92.50;16.77;;;;;;;;;;5146169;27;20008;-86
2022/01/20 03:32:16;;;;;;;67.95;15.52;;;;;;;;;;5140853;27;20015;-84
2022/01/20 03:34:42;;;;;;;46.80;14.20;;;;;;;;;;5138569;27;20053;-84
2022/01/20 03:37:08;;;;;;;44.20;15.68;;;;;;;;;;5119566;27;20024;-86
2022/01/20 03:39:34;;;;;;;34.58;14.98;;;;;;;;;;5115200;27;20111;-85
2022/01/20 03:42:00;;;;;;;40.05;14.13;;;;;;;;;;5117859;28;20067;-85
2022/01/20 03:44:26;;;;;;;21.77;11.70;;;;;;;;;;5102954;27;20418;-85
2022/01/20 03:46:53;;;;;;;13.82;8.13;;;;;;;;;;5137808;27;20479;-85
2022/01/20 03:51:57;;;;;;;9.88;5.45;;;;;;;;;;5128648;27;20123;-83
2022/01/20 03:54:23;;;;;;;9.70;5.47;;;;;;;;;;5113491;28;20494;-84
2022/01/20 03:56:49;;;;;;;9.18;4.60;;;;;;;;;;5100195;28;20050;-87
2022/01/20 03:59:15;;;;;;;9.43;5.05;;;;;;;;;;5123440;27;20047;-85
2022/01/20 04:01:41;;;;;;;13.15;4.68;;;;;;;;;;5118875;28;20031;-84
2022/01/20 04:04:07;;;;;;;8.02;4.80;;;;;;;;;;5116667;28;20031;-84
2022/01/20 04:06:33;;;;;;;10.80;4.65;;;;;;;;;;5116623;28;20387;-85
2022/01/20 04:08:59;;;;;;;11.73;4.65;;;;;;;;;;5119957;27;20034;-85
2022/01/20 04:11:27;;;;;;;9.60;5.13;;;;;;;;;;5117996;27;20026;-85
2022/01/20 04:13:53;;;;;;;11.50;5.10;;;;;;;;;;5110988;27;20083;-85
2022/01/20 04:16:24;;;;;;;8.63;5.03;;;;;;;;;;5123554;27;20051;-86
2022/01/20 04:18:56;;;;;;;13.48;7.13;;;;;;;;;;5139685;27;20074;-84
2022/01/20 04:21:30;;;;;;;13.38;6.13;;;;;;;;;;5139902;27;20015;-87
2022/01/20 04:23:57;;;;;;;14.27;8.00;;;;;;;;;;5139844;27;20095;-85
2022/01/20 04:26:23;;;;;;;12.57;7.63;;;;;;;;;;5120422;27;20033;-85
2022/01/20 04:28:53;;;;;;;13.60;7.32;;;;;;;;;;5138640;27;20023;-83
2022/01/20 04:31:20;;;;;;;13.13;7.82;;;;;;;;;;5137394;27;20102;-84
2022/01/20 04:33:45;;;;;;;20.23;10.13;;;;;;;;;;5146961;27;20037;-85
2022/01/20 04:36:12;;;;;;;20.40;10.52;;;;;;;;;;5116389;27;20474;-87
2022/01/20 04:38:38;;;;;;;21.90;11.88;;;;;;;;;;5095391;28;20027;-84
2022/01/20 04:41:04;;;;;;;26.50;12.13;;;;;;;;;;5114366;28;20068;-86
2022/01/20 04:43:30;;;;;;;24.45;12.23;;;;;;;;;;5114592;28;20107;-87
2022/01/20 04:46:07;;;;;;;30.38;13.20;;;;;;;;;;5116419;28;20019;-86
2022/01/20 04:59:23;;;;;;;30.40;16.10;;;;;;;;;;5117184;28;20056;-86
2022/01/20 05:01:49;;;;;;;35.30;17.60;;;;;;;;;;5107232;28;20519;-84
2022/01/20 05:04:15;;;;;;;33.78;16.98;;;;;;;;;;5119539;28;20023;-84
2022/01/20 05:06:43;;;;;;;35.17;18.20;;;;;;;;;;5138304;27;20027;-83
2022/01/20 05:09:16;;;;;;;42.47;17.67;;;;;;;;;;5133157;28;20128;-84
2022/01/20 05:11:46;;;;;;;40.67;16.17;;;;;;;;;;5101261;28;20420;-84
2022/01/20 05:14:12;;;;;;;37.53;17.38;;;;;;;;;;5116783;28;20023;-84
2022/01/20 05:16:38;;;;;;;33.40;15.35;;;;;;;;;;5129053;28;20026;-85
2022/01/20 05:19:04;;;;;;;31.67;15.13;;;;;;;;;;5128554;28;20424;-84
2022/01/20 05:21:30;;;;;;;36.75;16.38;;;;;;;;;;5132810;28;20031;-85
2022/01/20 05:23:56;;;;;;;30.02;14.80;;;;;;;;;;5116197;28;20019;-85
2022/01/20 05:26:22;;;;;;;36.67;15.93;;;;;;;;;;5134145;27;20025;-85
2022/01/20 05:28:48;;;;;;;37.25;15.52;;;;;;;;;;5115348;28;20054;-85
2022/01/20 05:31:14;;;;;;;37.65;16.45;;;;;;;;;;5119704;27;20023;-85
2022/01/20 05:33:40;;;;;;;33.70;16.23;;;;;;;;;;5138641;27;20023;-85
2022/01/20 05:36:06;;;;;;;29.30;16.13;;;;;;;;;;5117561;27;20325;-85
2022/01/20 05:38:32;;;;;;;39.13;15.45;;;;;;;;;;5140564;27;20034;-85
2022/01/20 05:40:58;;;;;;;36.50;15.23;;;;;;;;;;5102678;28;20020;-84
2022/01/20 05:43:24;;;;;;;34.78;13.90;;;;;;;;;;5121570;28;20036;-85
2022/01/20 05:45:50;;;;;;;35.63;15.02;;;;;;;;;;5120126;28;20049;-84
2022/01/20 05:48:20;;;;;;;31.10;14.52;;;;;;;;;;5101434;28;20019;-86
2022/01/20 05:50:46;;;;;;;26.13;13.13;;;;;;;;;;5120381;28;20101;-85
2022/01/20 05:53:12;;;;;;;22.50;11.93;;;;;;;;;;5116850;27;20297;-86
2022/01/20 05:55:39;;;;;;;26.65;12.43;;;;;;;;;;5140287;27;20030;-85
2022/01/20 05:58:06;;;;;;;25.00;12.43;;;;;;;;;;5129797;27;20034;-86
2022/01/20 06:00:33;;;;;;;24.08;10.80;;;;;;;;;;5102135;28;20047;-86
2022/01/20 06:05:44;;;;;;;34.28;11.65;;;;;;;;;;5122919;28;20042;-86
2022/01/20 06:08:10;;;;;;;28.45;11.98;;;;;;;;;;5134329;27;20020;-85
2022/01/20 06:10:37;;;;;;;21.55;10.02;;;;;;;;;;5134423;27;20023;-85
2022/01/20 06:13:03;;;;;;;25.83;10.35;;;;;;;;;;5102524;28;20072;-84
2022/01/20 06:15:29;;;;;;;31.30;11.27;;;;;;;;;;5104636;27;20059;-85
2022/01/20 06:17:56;;;;;;;23.98;10.27;;;;;;;;;;5130745;27;20028;-84
2022/01/20 06:20:22;;;;;;;39.17;11.05;;;;;;;;;;5122377;28;20038;-84
2022/01/20 06:22:48;;;;;;;23.27;10.20;;;;;;;;;;5122110;28;20477;-84
2022/01/20 06:25:14;;;;;;;23.60;9.75;;;;;;;;;;5120383;28;20502;-84
2022/01/20 06:27:40;;;;;;;31.45;10.45;;;;;;;;;;5117538;27;20402;-85
2022/01/20 06:30:06;;;;;;;28.73;10.82;;;;;;;;;;5122334;27;20031;-85
2022/01/20 06:32:33;;;;;;;30.85;12.15;;;;;;;;;;5128167;27;20023;-85
2022/01/20 06:34:59;;;;;;;39.47;12.23;;;;;;;;;;5116382;28;20403;-85
2022/01/20 06:37:25;;;;;;;32.38;13.13;;;;;;;;;;5124300;27;20072;-85
2022/01/20 06:39:51;;;;;;;37.92;12.93;;;;;;;;;;5138772;27;20019;-85
2022/01/20 06:42:17;;;;;;;39.08;14.27;;;;;;;;;;5120702;27;20057;-85
2022/01/20 06:44:44;;;;;;;35.33;15.32;;;;;;;;;;5121740;27;20063;-85
2022/01/20 06:47:10;;;;;;;33.08;13.85;;;;;;;;;;5118269;27;20073;-85
2022/01/20 06:49:36;;;;;;;42.75;16.30;;;;;;;;;;5119453;28;20031;-85
2022/01/20 06:52:02;;;;;;;37.95;16.15;;;;;;;;;;5100962;28;20019;-85
2022/01/20 06:54:28;;;;;;;46.90;16.83;;;;;;;;;;5120056;28;20040;-84
2022/01/20 06:56:54;;;;;;;45.80;17.27;;;;;;;;;;5102397;28;20027;-85
2022/01/20 06:59:20;;;;;;;45.92;18.20;;;;;;;;;;5118893;28;20300;-85
2022/01/20 07:01:48;;;;;;;50.40;19.65;;;;;;;;;;5099977;28;20133;-85
2022/01/20 07:04:15;;;;;;;52.17;19.45;;;;;;;;;;5100599;28;20043;-85
2022/01/20 07:06:41;;;;;;;55.17;19.30;;;;;;;;;;5130507;27;20126;-83
2022/01/20 07:09:11;;;;;;;42.90;17.58;;;;;;;;;;5139090;27;20027;-85
2022/01/20 07:11:38;;;;;;;68.38;19.30;;;;;;;;;;5125497;27;20479;-85
2022/01/20 07:14:04;;;;;;;50.45;19.70;;;;;;;;;;5100048;28;20443;-85
2022/01/20 07:16:30;;;;;;;46.25;19.55;;;;;;;;;;5122823;27;20099;-85
2022/01/20 07:18:57;;;;;;;46.72;18.80;;;;;;;;;;5106230;27;20118;-86
2022/01/20 07:21:23;;;;;;;51.20;19.02;;;;;;;;;;5137794;27;20031;-85
2022/01/20 07:23:49;;;;;;;52.20;18.58;;;;;;;;;;5119632;27;20038;-85
2022/01/20 07:26:15;;;;;;;54.67;19.08;;;;;;;;;;5138243;27;20016;-85
2022/01/20 07:28:42;;;;;;;51.78;18.70;;;;;;;;;;5125871;27;20026;-85
2022/01/20 07:31:08;;;;;;;54.20;19.10;;;;;;;;;;5136625;27;20098;-85
2022/01/20 07:33:34;;;;;;;59.17;19.92;;;;;;;;;;5116901;28;20043;-83
2022/01/20 07:36:00;;;;;;;44.22;19.85;;;;;;;;;;5119897;27;20122;-85
2022/01/20 07:38:26;;;;;;;57.67;18.73;;;;;;;;;;5136703;27;20090;-86
2022/01/20 07:40:53;;;;;;;51.95;20.20;;;;;;;;;;5138254;27;20015;-83
2022/01/20 07:43:19;;;;;;;46.58;20.25;;;;;;;;;;5147036;27;20027;-86
2022/01/20 07:45:46;;;;;;;44.33;19.70;;;;;;;;;;5120259;27;20059;-87
2022/01/20 07:48:12;;;;;;;57.67;18.30;;;;;;;;;;5115844;28;20096;-84
2022/01/20 07:50:38;;;;;;;49.17;19.52;;;;;;;;;;5123942;28;20035;-84
2022/01/20 07:53:04;;;;;;;53.97;18.65;;;;;;;;;;5129127;27;20030;-85
2022/01/20 07:55:31;;;;;;;43.67;16.83;;;;;;;;;;5130839;27;20092;-87
2022/01/20 07:57:57;;;;;;;46.53;17.95;;;;;;;;;;5127688;27;20107;-86
2022/01/20 08:00:23;;;;;;;52.97;18.50;;;;;;;;;;5121462;28;20027;-86
2022/01/20 08:02:49;;;;;;;45.28;15.98;;;;;;;;;;5103523;28;20067;-86
2022/01/20 08:05:16;;;;;;;50.75;16.88;;;;;;;;;;5101758;28;20042;-87
2022/01/20 08:07:42;;;;;;;43.97;16.08;;;;;;;;;;5119962;28;20091;-86
2022/01/20 08:10:11;;;;;;;39.75;15.70;;;;;;;;;;5120965;28;20012;-85
2022/01/20 08:12:37;;;;;;;52.08;16.52;;;;;;;;;;5123180;28;20072;-86
2022/01/20 08:15:03;;;;;;;38.75;15.77;;;;;;;;;;5120063;28;20077;-85
2022/01/20 08:17:30;;;;;;;45.33;15.77;;;;;;;;;;5138795;27;20027;-86
2022/01/20 08:19:56;;;;;;;39.70;14.20;;;;;;;;;;5127089;27;20076;-85
2022/01/20 08:22:22;;;;;;;42.58;13.70;;;;;;;;;;5122006;27;20019;-84
2022/01/20 08:24:52;;;;;;;35.20;12.50;;;;;;;;;;5131305;27;20386;-85
2022/01/20 08:27:18;;;;;;;37.03;13.80;;;;;;;;;;5118117;27;20019;-84
2022/01/20 08:29:44;;;;;;;32.83;13.00;;;;;;;;;;5141878;27;20034;-86
2022/01/20 08:32:10;;;;;;;39.55;11.85;;;;;;;;;;5129790;27;20027;-86
2022/01/20 08:34:36;;;;;;;36.03;10.50;;;;;;;;;;5115329;28;20035;-86
2022/01/20 08:37:02;;;;;;;35.97;11.75;;;;;;;;;;5123338;28;20026;-85
2022/01/20 08:41:58;;;;;;;42.00;11.80;;;;;;;;;;5121470;28;20115;-86
2022/01/20 08:44:24;;;;;;;37.95;12.20;;;;;;;;;;5099896;28;20024;-87
2022/01/20 08:46:51;;;;;;;27.20;13.02;;;;;;;;;;5128742;28;20490;-87
2022/01/20 08:49:17;;;;;;;44.67;13.80;;;;;;;;;;5136529;28;20522;-83
2022/01/20 08:51:43;;;;;;;32.88;11.25;;;;;;;;;;5130444;27;20044;-83
2022/01/20 08:54:09;;;;;;;37.20;12.35;;;;;;;;;;5117696;28;20038;-86
2022/01/20 08:56:35;;;;;;;34.47;11.88;;;;;;;;;;5112566;28;20039;-87
2022/01/20 08:59:02;;;;;;;41.15;11.82;;;;;;;;;;5115895;28;20020;-86
2022/01/20 09:01:29;;;;;;;35.42;11.27;;;;;;;;;;5117197;28;20117;-86
2022/01/20 09:03:55;;;;;;;33.70;10.55;;;;;;;;;;5116896;28;20399;-84
2022/01/20 09:06:21;;;;;;;41.65;10.88;;;;;;;;;;5120225;28;20036;-85
2022/01/20 09:08:48;;;;;;;27.08;10.60;;;;;;;;;;5119307;28;20451;-84
2022/01/20 09:11:19;;;;;;;35.80;10.55;;;;;;;;;;5120768;28;20020;-86
2022/01/20 09:16:30;;;;;;;33.80;11.15;;;;;;;;;;5130299;27;20691;-87
2022/01/20 09:18:56;;;;;;;38.90;11.02;;;;;;;;;;5122860;27;20039;-85
2022/01/20 09:21:23;;;;;;;39.90;12.23;;;;;;;;;;5121561;27;20522;-85
2022/01/20 09:23:49;;;;;;;27.15;10.70;;;;;;;;;;5122668;27;20027;-86
2022/01/20 09:26:16;;;;;;;34.72;12.48;;;;;;;;;;5122262;27;20015;-86
2022/01/20 09:28:42;;;;;;;45.97;13.25;;;;;;;;;;5121107;27;20019;-86
2022/01/20 09:31:11;;;;;;;30.92;12.40;;;;;;;;;;5138532;27;20248;-85
2022/01/20 09:33:39;;;;;;;36.38;12.50;;;;;;;;;;5120589;27;20027;-86
2022/01/20 09:36:10;;;;;;;47.08;13.77;;;;;;;;;;5139616;27;20037;-85
2022/01/20 09:38:36;;;;;;;38.50;13.27;;;;;;;;;;5140691;27;20107;-85
2022/01/20 09:41:02;;;;;;;36.15;13.27;;;;;;;;;;5124092;27;20393;-86
2022/01/20 09:43:28;;;;;;;35.63;14.13;;;;;;;;;;5139049;27;20047;-86
2022/01/20 09:45:57;;;;;;;40.63;14.27;;;;;;;;;;5141962;27;20027;-85
2022/01/20 09:48:24;;;;;;;38.88;13.38;;;;;;;;;;5121269;27;20058;-85
2022/01/20 09:50:51;;;;;;;38.42;12.73;;;;;;;;;;5119747;27;20059;-84
2022/01/20 09:53:17;;;;;;;34.55;13.05;;;;;;;;;;5120004;27;20059;-85
2022/01/20 09:55:43;;;;;;;43.70;13.48;;;;;;;;;;5138400;27;20094;-84
2022/01/20 09:58:10;;;;;;;34.90;11.60;;;;;;;;;;5137566;27;20031;-86
2022/01/20 10:00:36;;;;;;;36.72;11.45;;;;;;;;;;5120638;27;20031;-85
2022/01/20 10:03:08;;;;;;;36.78;11.32;;;;;;;;;;5122827;27;20126;-85
2022/01/20 10:05:39;;;;;;;24.98;9.88;;;;;;;;;;5121262;27;20106;-85
2022/01/20 10:08:14;;;;;;;38.30;9.57;;;;;;;;;;5158132;27;20046;-88
2022/01/20 10:10:46;;;;;;;29.60;11.23;;;;;;;;;;5142839;27;20034;-87
2022/01/20 10:13:13;;;;;;;27.23;10.32;;;;;;;;;;5160272;27;20042;-87
2022/01/20 10:15:39;;;;;;;28.38;10.68;;;;;;;;;;5158949;27;20015;-85
2022/01/20 10:18:06;;;;;;;23.83;10.27;;;;;;;;;;5139508;27;20461;-85
2022/01/20 10:20:32;;;;;;;26.45;9.45;;;;;;;;;;5138978;27;20023;-84
2022/01/20 10:22:58;;;;;;;25.20;9.80;;;;;;;;;;5140286;27;20091;-86
2022/01/20 10:25:25;;;;;;;26.30;9.50;;;;;;;;;;5137705;27;20031;-85
2022/01/20 10:27:57;;;;;;;29.40;10.93;;;;;;;;;;5138433;27;20015;-84
2022/01/20 10:30:26;;;;;;;27.23;11.88;;;;;;;;;;5131767;27;20042;-84
2022/01/20 10:32:53;;;;;;;25.13;11.13;;;;;;;;;;5136744;27;20053;-86
2022/01/20 10:35:24;;;;;;;30.98;11.55;;;;;;;;;;5136847;27;20019;-86
2022/01/20 10:38:12;;;;;;;25.33;8.80;;;;;;;;;;5118125;27;20023;-84
2022/01/20 10:40:46;;;;;;;32.03;9.50;;;;;;;;;;5116533;28;20019;-87
2022/01/20 10:43:19;;;;;;;19.35;8.25;;;;;;;;;;5116111;28;20020;-86
2022/01/20 10:45:45;;;;;;;21.65;7.63;;;;;;;;;;5116789;28;20498;-85
2022/01/20 10:48:17;;;;;;;29.15;9.38;;;;;;;;;;5115448;28;20024;-85
2022/01/20 10:50:43;;;;;;;30.15;9.35;;;;;;;;;;5118022;27;20436;-86
2022/01/20 10:53:19;;;;;;;24.30;9.27;;;;;;;;;;5117771;27;20030;-84
2022/01/20 10:55:45;;;;;;;27.40;8.57;;;;;;;;;;5117754;27;20110;-85
2022/01/20 10:58:12;;;;;;;27.65;8.82;;;;;;;;;;5117238;27;20030;-84
2022/01/20 11:00:43;;;;;;;20.67;8.60;;;;;;;;;;5118081;27;20019;-84
2022/01/20 11:03:09;;;;;;;20.90;8.83;;;;;;;;;;5136367;27;20034;-86
2022/01/20 11:05:35;;;;;;;25.88;9.98;;;;;;;;;;5136341;27;20031;-86
2022/01/20 11:08:01;;;;;;;16.63;7.75;;;;;;;;;;5136619;27;20019;-84
2022/01/20 11:10:27;;;;;;;18.77;8.00;;;;;;;;;;5145870;27;20046;-85
2022/01/20 11:12:53;;;;;;;26.13;7.75;;;;;;;;;;5121733;27;20024;-87
2022/01/20 11:15:20;;;;;;;21.55;7.40;;;;;;;;;;5138242;27;20046;-87
2022/01/20 11:17:51;;;;;;;16.42;7.03;;;;;;;;;;5135336;27;20027;-85
2022/01/20 11:20:21;;;;;;;18.40;7.40;;;;;;;;;;5136922;27;20031;-84
2022/01/20 11:22:54;;;;;;;22.33;7.13;;;;;;;;;;5134588;27;20027;-86
2022/01/20 11:25:22;;;;;;;17.27;6.55;;;;;;;;;;5135922;27;20019;-86
2022/01/20 11:27:50;;;;;;;16.88;6.30;;;;;;;;;;5136287;27;20019;-86
2022/01/20 11:30:18;;;;;;;13.52;5.20;;;;;;;;;;5121648;27;20023;-86
2022/01/20 11:32:46;;;;;;;18.25;6.15;;;;;;;;;;5121663;27;20042;-85
2022/01/20 11:35:13;;;;;;;16.58;6.57;;;;;;;;;;5136705;27;20394;-86
2022/01/20 11:37:43;;;;;;;20.00;6.45;;;;;;;;;;5135612;27;20042;-86
2022/01/20 11:40:12;;;;;;;11.70;4.13;;;;;;;;;;5117499;27;20103;-86
2022/01/20 11:42:39;;;;;;;10.63;4.85;;;;;;;;;;5136573;27;20026;-86
2022/01/20 11:45:23;;;;;;;8.98;4.10;;;;;;;;;;5118036;27;20079;-85
2022/01/20 11:47:50;;;;;;;7.60;3.13;;;;;;;;;;5135263;27;20499;-86
2022/01/20 11:50:17;;;;;;;8.13;3.30;;;;;;;;;;5124233;27;20043;-88
2022/01/20 11:52:43;;;;;;;9.50;2.67;;;;;;;;;;5155639;27;20010;-86
2022/01/20 11:55:13;;;;;;;7.30;2.88;;;;;;;;;;5134329;27;20027;-86
2022/01/20 11:57:39;;;;;;;4.32;1.73;;;;;;;;;;5138781;27;20057;-85
2022/01/20 12:00:26;;;;;;;9.73;2.30;;;;;;;;;;5137811;27;20031;-85
2022/01/20 12:02:52;;;;;;;3.97;1.50;;;;;;;;;;5119132;27;20054;-85
2022/01/20 12:05:26;;;;;;;8.80;2.17;;;;;;;;;;5137010;27;20023;-86
2022/01/20 12:07:53;;;;;;;4.40;1.52;;;;;;;;;;5136334;27;20015;-86
2022/01/20 12:10:23;;;;;;;9.40;1.83;;;;;;;;;;5116920;27;20050;-86
2022/01/20 12:12:49;;;;;;;5.23;1.60;;;;;;;;;;5136257;27;20574;-85
2022/01/20 12:15:21;;;;;;;6.07;1.98;;;;;;;;;;5137564;27;20284;-85
2022/01/20 12:17:51;;;;;;;5.65;1.83;;;;;;;;;;5136452;27;20038;-86
2022/01/20 12:20:18;;;;;;;5.03;1.58;;;;;;;;;;5117379;27;20019;-87
2022/01/20 12:22:44;;;;;;;8.27;2.05;;;;;;;;;;5136981;27;20031;-85
2022/01/20 12:25:16;;;;;;;2.72;1.40;;;;;;;;;;5117863;28;20030;-86
2022/01/20 12:27:43;;;;;;;8.00;2.50;;;;;;;;;;5117236;27;20019;-86
2022/01/20 12:30:36;;;;;;;7.18;1.77;;;;;;;;;;5147163;27;20037;-85
2022/01/20 12:33:07;;;;;;;4.68;1.63;;;;;;;;;;5131117;27;20043;-85
2022/01/20 12:35:36;;;;;;;4.30;1.50;;;;;;;;;;5132782;27;20130;-85
2022/01/20 12:38:02;;;;;;;7.50;1.90;;;;;;;;;;5133359;27;20122;-85
2022/01/20 12:40:28;;;;;;;8.68;1.80;;;;;;;;;;5134568;27;20042;-86
2022/01/20 12:42:54;;;;;;;10.15;2.28;;;;;;;;;;5136286;27;20492;-84
2022/01/20 12:48:12;;;;;;;7.95;1.73;;;;;;;;;;5134726;28;20046;-85
2022/01/20 12:50:38;;;;;;;3.33;1.13;;;;;;;;;;5136387;28;20020;-87
2022/01/20 12:53:04;;;;;;;12.30;1.95;;;;;;;;;;5136099;28;20027;-86
2022/01/20 12:55:30;;;;;;;8.48;1.50;;;;;;;;;;5134720;28;20027;-85
2022/01/20 12:58:00;;;;;;;7.82;1.42;;;;;;;;;;5134648;28;20037;-87
2022/01/20 13:00:26;;;;;;;4.75;1.40;;;;;;;;;;5135188;28;20494;-86
2022/01/20 13:02:52;;;;;;;7.35;1.88;;;;;;;;;;5134153;28;20035;-86
2022/01/20 13:05:19;;;;;;;6.75;1.75;;;;;;;;;;5133568;28;20050;-86
2022/01/20 13:07:51;;;;;;;6.95;1.90;;;;;;;;;;5133995;28;20068;-86
2022/01/20 13:10:32;;;;;;;18.02;2.28;;;;;;;;;;5135005;28;20023;-86
2022/01/20 13:13:00;;;;;;;3.40;1.40;;;;;;;;;;5131717;28;20020;-84
2022/01/20 13:15:29;;;;;;;9.30;1.85;;;;;;;;;;5122732;28;20030;-86
2022/01/20 13:18:06;;;;;;;9.15;1.98;;;;;;;;;;5132553;28;20027;-87
2022/01/20 13:20:32;;;;;;;9.65;2.15;;;;;;;;;;5132479;28;20077;-85
2022/01/20 13:23:10;;;;;;;10.63;1.77;;;;;;;;;;5134455;28;20394;-86
2022/01/20 13:25:40;;;;;;;4.68;1.73;;;;;;;;;;5133690;28;20023;-87
2022/01/20 13:28:07;;;;;;;5.90;1.80;;;;;;;;;;5107215;28;20023;-86
2022/01/20 13:30:36;;;;;;;3.38;1.48;;;;;;;;;;5113846;28;20091;-86
2022/01/20 13:33:07;;;;;;;6.78;1.42;;;;;;;;;;5113773;28;20015;-87
2022/01/20 13:35:47;;;;;;;5.53;1.38;;;;;;;;;;5113653;28;20506;-87
2022/01/20 13:38:14;;;;;;;8.57;2.63;;;;;;;;;;5095314;28;20032;-86
2022/01/20 13:40:43;;;;;;;7.13;1.77;;;;;;;;;;5114508;28;20072;-87
2022/01/20 13:46:02;;;;;;;3.60;1.35;;;;;;;;;;5113787;28;20058;-86
2022/01/20 13:48:29;;;;;;;8.05;1.67;;;;;;;;;;5100505;28;20069;-87
2022/01/20 13:50:56;;;;;;;11.07;1.75;;;;;;;;;;5134708;27;20015;-88
2022/01/20 13:53:26;;;;;;;7.35;1.50;;;;;;;;;;5119010;27;20084;-88
2022/01/20 13:55:52;;;;;;;8.25;1.40;;;;;;;;;;5119772;27;20486;-87
2022/01/20 13:58:23;;;;;;;6.50;1.35;;;;;;;;;;5118511;27;20055;-88
2022/01/20 14:00:49;;;;;;;4.93;1.38;;;;;;;;;;5118047;27;20481;-91
2022/01/20 14:03:34;;;;;;;3.78;1.20;;;;;;;;;;5137817;27;20046;-92
2022/01/20 14:06:00;;;;;;;7.22;1.38;;;;;;;;;;5137965;27;20079;-90
2022/01/20 14:09:14;;;;;;;;;;;;;;;;;;;;;
2022/01/20 14:11:50;;;;;;;5.47;1.33;;;;;;;;;;5097004;27;20114;-91
2022/01/20 14:14:16;;;;;;;6.75;1.10;;;;;;;;;;5141200;27;20122;-90
2022/01/20 14:17:04;;;;;;;;;;;;;;;;;;;;;
2022/01/20 14:22:46;;;;;;;6.18;1.45;;;;;;;;;;5140430;27;20103;-90
2022/01/20 14:25:12;;;;;;;7.47;1.63;;;;;;;;;;5101092;28;20031;-87
2022/01/20 14:28:00;;;;;;;6.53;1.90;;;;;;;;;;5105251;28;20031;-91
2022/01/20 14:30:27;;;;;;;4.80;1.20;;;;;;;;;;5102436;28;20031;-88
2022/01/20 14:32:56;;;;;;;3.85;1.30;;;;;;;;;;5103386;27;20015;-89
2022/01/20 14:35:40;;;;;;;7.50;1.13;;;;;;;;;;5137435;27;20027;-89
2022/01/20 14:38:06;;;;;;;9.65;1.52;;;;;;;;;;5118021;27;20023;-85
2022/01/20 14:40:32;;;;;;;7.28;1.60;;;;;;;;;;5118538;27;20019;-85
2022/01/20 14:42:58;;;;;;;6.05;1.77;;;;;;;;;;5137875;27;20096;-87
2022/01/20 14:45:24;;;;;;;6.90;1.95;;;;;;;;;;5141803;27;20027;-87
2022/01/20 14:47:54;;;;;;;6.05;1.63;;;;;;;;;;5159900;27;20080;-90
2022/01/20 14:50:21;;;;;;;5.20;1.45;;;;;;;;;;5141895;27;20045;-91
2022/01/20 14:52:47;;;;;;;5.50;1.27;;;;;;;;;;5145696;27;20209;-88
2022/01/20 14:55:13;;;;;;;5.00;1.23;;;;;;;;;;5141324;27;20539;-86
2022/01/20 14:57:39;;;;;;;5.38;1.20;;;;;;;;;;5119567;27;20095;-87
2022/01/20 15:00:06;;;;;;;5.28;1.60;;;;;;;;;;5140851;27;20098;-86
2022/01/20 15:02:32;;;;;;;11.25;2.00;;;;;;;;;;5142472;27;20027;-87
2022/01/20 15:04:58;;;;;;;4.00;1.80;;;;;;;;;;5140800;27;20110;-86
2022/01/20 15:07:24;;;;;;;6.13;1.52;;;;;;;;;;5122179;27;20065;-88
2022/01/20 15:09:50;;;;;;;4.47;1.10;;;;;;;;;;5140727;27;20026;-85
2022/01/20 15:12:16;;;;;;;7.97;1.85;;;;;;;;;;5140722;27;20026;-85
2022/01/20 15:15:02;;;;;;;2.83;1.55;;;;;;;;;;5130956;27;20054;-88
2022/01/20 15:17:28;;;;;;;4.30;1.20;;;;;;;;;;5121818;27;20019;-87
2022/01/20 15:19:55;;;;;;;8.23;1.65;;;;;;;;;;5140627;27;20050;-87
2022/01/20 15:22:26;;;;;;;3.92;1.45;;;;;;;;;;5137432;27;20469;-86
2022/01/20 15:28:06;;;;;;;7.93;1.65;;;;;;;;;;5087488;28;20032;-85
2022/01/20 15:30:34;;;;;;;6.30;1.50;;;;;;;;;;5121425;28;20072;-88
2022/01/20 15:35:49;;;;;;;6.35;2.05;;;;;;;;;;5116673;28;20150;-90
2022/01/20 15:38:15;;;;;;;6.57;1.63;;;;;;;;;;5116630;28;20028;-86
2022/01/20 15:40:45;;;;;;;7.95;1.70;;;;;;;;;;5098507;28;20027;-88
2022/01/20 15:43:17;;;;;;;8.73;2.03;;;;;;;;;;5098105;28;20032;-88
2022/01/20 15:45:43;;;;;;;8.63;1.55;;;;;;;;;;5116483;28;20395;-89
2022/01/20 15:48:08;;;;;;;8.68;1.60;;;;;;;;;;5117703;28;20016;-88
2022/01/20 15:50:43;;;;;;;3.33;1.42;;;;;;;;;;5098425;28;20024;-90
2022/01/20 15:53:09;;;;;;;16.60;1.95;;;;;;;;;;5116480;28;20038;-89
2022/01/20 15:55:37;;;;;;;8.55;1.73;;;;;;;;;;5116395;27;20038;-88
2022/01/20 15:58:04;;;;;;;9.05;1.83;;;;;;;;;;5106157;28;20034;-90
2022/01/20 16:00:31;;;;;;;9.73;1.80;;;;;;;;;;5116031;28;20030;-92
2022/01/20 16:02:57;;;;;;;11.45;1.75;;;;;;;;;;5112604;28;20019;-91
2022/01/20 16:05:24;;;;;;;16.05;2.60;;;;;;;;;;5124940;28;20048;-90
2022/01/20 16:07:50;;;;;;;8.48;1.48;;;;;;;;;;5101857;28;20023;-90
2022/01/20 16:10:16;;;;;;;6.28;2.00;;;;;;;;;;5133457;27;20052;-91